createdAt,value
2018-12-30T00:00:29.947Z,13.50
2018-12-30T00:03:01.035Z,13.18
2018-12-30T00:05:32.084Z,14.10
2018-12-30T00:08:03.106Z,13.30
2018-12-30T00:10:33.900Z,12.13
2018-12-30T00:13:04.851Z,13.30
2018-12-30T00:15:36.088Z,13.38
2018-12-30T00:18:07.258Z,13.80
2018-12-30T00:20:38.846Z,12.65
2018-12-30T00:23:09.811Z,13.25
2018-12-30T00:25:40.980Z,11.10
2018-12-30T00:28:11.833Z,12.20
2018-12-30T00:30:42.675Z,12.57
2018-12-30T00:33:13.543Z,13.10
2018-12-30T00:35:44.414Z,12.70
2018-12-30T00:38:15.294Z,13.37
2018-12-30T00:40:46.180Z,11.90
2018-12-30T00:43:17.034Z,10.80
2018-12-30T00:45:47.907Z,11.70
2018-12-30T00:48:18.759Z,10.63
2018-12-30T00:50:49.582Z,9.83
2018-12-30T00:53:20.431Z,10.40
2018-12-30T00:55:51.256Z,10.37
2018-12-30T00:58:22.114Z,10.40
2018-12-30T01:00:53.395Z,9.88
2018-12-30T01:03:24.254Z,10.90
2018-12-30T01:05:55.235Z,10.50
2018-12-30T01:08:28.520Z,9.30
2018-12-30T01:10:59.372Z,9.00
2018-12-30T01:13:30.235Z,8.20
2018-12-30T01:16:01.074Z,10.07
2018-12-30T01:18:31.911Z,8.50
2018-12-30T01:21:02.741Z,7.87
2018-12-30T01:23:33.603Z,7.40
2018-12-30T01:26:04.457Z,7.87
2018-12-30T01:28:35.379Z,6.60
2018-12-30T01:31:06.668Z,8.23
2018-12-30T01:33:37.568Z,7.20
2018-12-30T01:36:08.732Z,9.05
2018-12-30T01:38:39.617Z,7.43
2018-12-30T01:41:10.466Z,7.10
2018-12-30T01:43:41.322Z,8.53
2018-12-30T01:46:12.496Z,8.07
2018-12-30T01:48:43.342Z,7.17
2018-12-30T01:51:14.239Z,7.10
2018-12-30T01:53:45.078Z,7.30
2018-12-30T01:56:15.917Z,6.40
2018-12-30T01:58:47.084Z,6.92
2018-12-30T02:01:17.927Z,5.53
2018-12-30T02:03:48.810Z,6.50
2018-12-30T02:06:20.098Z,5.27
2018-12-30T02:08:50.957Z,5.50
2018-12-30T02:11:21.812Z,5.20
2018-12-30T02:13:52.697Z,5.97
2018-12-30T02:16:23.561Z,6.03
2018-12-30T02:18:54.402Z,6.10
2018-12-30T02:21:25.554Z,5.78
2018-12-30T02:23:56.427Z,6.07
2018-12-30T02:26:27.307Z,5.67
2018-12-30T02:28:58.176Z,4.97
2018-12-30T02:31:29.088Z,5.40
2018-12-30T02:33:59.921Z,5.87
2018-12-30T02:36:30.762Z,5.63
2018-12-30T02:39:01.623Z,5.20
2018-12-30T02:41:32.834Z,5.17
2018-12-30T02:44:03.677Z,5.55
2018-12-30T02:46:34.557Z,5.27
2018-12-30T02:49:05.381Z,4.80
2018-12-30T02:51:36.280Z,4.30
2018-12-30T02:54:07.440Z,4.58
2018-12-30T02:56:38.301Z,5.27
2018-12-30T02:59:09.203Z,4.80
2018-12-30T03:01:40.388Z,5.60
2018-12-30T03:04:11.257Z,3.95
2018-12-30T03:06:42.149Z,3.97
2018-12-30T03:09:13.024Z,4.67
2018-12-30T03:11:43.912Z,4.53
2018-12-30T03:14:14.791Z,4.50
2018-12-30T03:16:45.674Z,4.00
2018-12-30T03:19:16.533Z,3.90
2018-12-30T03:21:47.363Z,3.43
2018-12-30T03:24:18.222Z,3.73
2018-12-30T03:26:49.075Z,2.97
2018-12-30T03:29:19.916Z,4.13
2018-12-30T03:31:50.960Z,4.40
2018-12-30T03:34:21.919Z,3.58
2018-12-30T03:36:52.770Z,3.80
2018-12-30T03:39:23.658Z,3.00
2018-12-30T03:41:54.634Z,4.23
2018-12-30T03:44:25.510Z,3.90
2018-12-30T03:46:56.319Z,4.47
2018-12-30T03:49:27.178Z,3.63
2018-12-30T03:51:58.027Z,4.47
2018-12-30T03:54:28.894Z,4.67
2018-12-30T03:56:59.736Z,4.60
2018-12-30T03:59:30.727Z,4.27
2018-12-30T04:02:01.561Z,4.70
2018-12-30T04:04:32.490Z,4.23
2018-12-30T04:07:03.366Z,4.17
2018-12-30T04:09:34.231Z,4.10
2018-12-30T04:12:05.081Z,4.50
2018-12-30T04:14:35.931Z,4.83
2018-12-30T04:17:06.799Z,4.77
2018-12-30T04:19:37.687Z,3.30
2018-12-30T04:22:16.669Z,4.70
2018-12-30T04:24:41.329Z,3.60
2018-12-30T04:27:12.179Z,4.30
2018-12-30T04:29:43.083Z,4.57
2018-12-30T04:32:13.916Z,4.27
2018-12-30T04:34:44.776Z,3.67
2018-12-30T04:37:15.592Z,3.33
2018-12-30T04:39:46.459Z,3.80
2018-12-30T04:42:17.349Z,3.97
2018-12-30T04:44:48.197Z,3.63
2018-12-30T04:47:19.058Z,2.93
2018-12-30T04:49:49.942Z,3.37
2018-12-30T04:52:25.520Z,4.07
2018-12-30T04:54:53.707Z,2.90
2018-12-30T04:57:24.607Z,2.90
2018-12-30T04:59:55.503Z,3.77
2018-12-30T05:02:26.318Z,3.10
2018-12-30T05:04:57.218Z,2.93
2018-12-30T05:07:28.089Z,2.63
2018-12-30T05:09:58.995Z,2.67
2018-12-30T05:12:29.862Z,3.27
2018-12-30T05:15:00.719Z,2.80
2018-12-30T05:17:31.549Z,2.23
2018-12-30T05:20:04.113Z,2.87
2018-12-30T05:22:34.978Z,2.33
2018-12-30T05:25:05.895Z,2.27
2018-12-30T05:27:36.753Z,2.40
2018-12-30T05:30:07.643Z,2.40
2018-12-30T05:32:38.504Z,1.97
2018-12-30T05:35:09.408Z,2.33
2018-12-30T05:37:40.461Z,2.60
2018-12-30T05:40:11.343Z,2.52
2018-12-30T05:42:42.188Z,2.40
2018-12-30T05:45:13.068Z,2.57
2018-12-30T05:47:43.947Z,3.20
2018-12-30T05:50:14.820Z,3.00
2018-12-30T05:52:45.697Z,3.10
2018-12-30T05:55:16.574Z,3.07
2018-12-30T05:57:47.448Z,3.10
2018-12-30T06:00:18.427Z,3.70
2018-12-30T06:02:49.311Z,3.33
2018-12-30T06:05:20.189Z,3.17
2018-12-30T06:07:51.058Z,3.67
2018-12-30T06:10:22.030Z,3.90
2018-12-30T06:12:52.895Z,4.13
2018-12-30T06:15:23.768Z,3.60
2018-12-30T06:17:54.586Z,4.47
2018-12-30T06:20:25.513Z,5.70
2018-12-30T06:22:56.418Z,4.53
2018-12-30T06:25:27.274Z,4.67
2018-12-30T06:27:58.133Z,4.47
2018-12-30T06:30:28.978Z,5.20
2018-12-30T06:32:59.844Z,4.77
2018-12-30T06:35:30.735Z,5.37
2018-12-30T06:38:01.583Z,5.10
2018-12-30T06:40:32.429Z,5.20
2018-12-30T06:43:03.343Z,5.23
2018-12-30T06:45:34.189Z,4.90
2018-12-30T06:48:05.031Z,5.70
2018-12-30T06:50:35.878Z,5.40
2018-12-30T06:53:06.761Z,5.93
2018-12-30T06:55:37.626Z,6.20
2018-12-30T06:58:08.478Z,5.23
2018-12-30T07:00:39.327Z,5.67
2018-12-30T07:03:10.158Z,5.43
2018-12-30T07:05:41.022Z,4.73
2018-12-30T07:08:11.903Z,6.33
2018-12-30T07:10:42.787Z,5.57
2018-12-30T07:13:13.669Z,5.17
2018-12-30T07:15:44.528Z,6.13
2018-12-30T07:18:15.434Z,5.37
2018-12-30T07:20:46.319Z,5.50
2018-12-30T07:23:17.289Z,5.40
2018-12-30T07:25:48.148Z,5.53
2018-12-30T07:28:19.001Z,4.50
2018-12-30T07:30:49.887Z,5.00
2018-12-30T07:33:23.089Z,5.00
2018-12-30T07:35:53.542Z,4.60
2018-12-30T07:38:24.414Z,5.60
2018-12-30T07:40:55.257Z,4.70
2018-12-30T07:43:26.159Z,5.03
2018-12-30T07:45:57.007Z,5.03
2018-12-30T07:48:27.845Z,5.50
2018-12-30T07:50:58.699Z,5.70
2018-12-30T07:53:29.599Z,5.27
2018-12-30T07:56:00.496Z,5.27
2018-12-30T07:58:31.371Z,5.23
2018-12-30T08:01:02.233Z,4.83
2018-12-30T08:03:33.131Z,4.10
2018-12-30T08:06:03.950Z,4.40
2018-12-30T08:08:34.820Z,4.17
2018-12-30T08:11:05.667Z,4.03
2018-12-30T08:13:36.528Z,4.03
2018-12-30T08:16:07.317Z,4.00
2018-12-30T08:18:40.120Z,3.97
2018-12-30T08:21:10.977Z,4.12
2018-12-30T08:23:41.802Z,3.60
2018-12-30T08:26:12.579Z,4.33
2018-12-30T08:28:43.361Z,3.00
2018-12-30T08:31:14.117Z,4.10
2018-12-30T08:33:44.922Z,3.57
2018-12-30T08:36:15.678Z,3.60
2018-12-30T08:38:46.493Z,3.57
2018-12-30T08:41:17.564Z,3.63
2018-12-30T08:43:48.326Z,3.67
2018-12-30T08:46:19.136Z,3.70
2018-12-30T08:48:49.898Z,3.20
2018-12-30T08:51:20.770Z,2.93
2018-12-30T08:53:51.541Z,3.73
2018-12-30T08:56:22.302Z,3.27
2018-12-30T08:58:53.089Z,3.03
2018-12-30T09:01:28.481Z,2.90
2018-12-30T09:03:56.529Z,2.98
2018-12-30T09:06:27.299Z,3.27
2018-12-30T09:08:58.080Z,3.60
2018-12-30T09:11:28.871Z,3.40
2018-12-30T09:13:59.642Z,2.50
2018-12-30T09:16:30.470Z,3.00
2018-12-30T09:19:01.237Z,2.67
2018-12-30T09:21:32.006Z,2.70
2018-12-30T09:24:02.796Z,2.37
2018-12-30T09:26:40.465Z,2.20
2018-12-30T09:29:11.245Z,2.55
2018-12-30T09:31:41.997Z,2.47
2018-12-30T09:34:12.764Z,2.07
2018-12-30T09:36:43.527Z,2.50
2018-12-30T09:39:14.326Z,2.70
2018-12-30T09:41:45.099Z,2.20
2018-12-30T09:44:15.867Z,2.50
2018-12-30T09:46:46.638Z,2.90
2018-12-30T09:49:17.402Z,2.13
2018-12-30T09:51:48.170Z,2.80
2018-12-30T09:54:18.946Z,2.23
2018-12-30T09:56:49.709Z,2.23
2018-12-30T09:59:20.484Z,2.33
2018-12-30T10:01:51.250Z,2.13
2018-12-30T10:04:22.029Z,2.83
2018-12-30T10:06:52.798Z,2.20
2018-12-30T10:09:23.601Z,2.20
2018-12-30T10:11:54.365Z,3.10
2018-12-30T10:14:25.140Z,2.27
2018-12-30T10:16:55.911Z,2.97
2018-12-30T10:19:26.820Z,2.27
2018-12-30T10:21:57.655Z,2.57
2018-12-30T10:24:28.504Z,2.50
2018-12-30T10:26:59.274Z,2.23
2018-12-30T10:29:30.065Z,2.40
2018-12-30T10:32:00.896Z,2.37
2018-12-30T10:34:32.269Z,1.80
2018-12-30T10:37:03.099Z,2.15
2018-12-30T10:39:33.866Z,2.40
2018-12-30T10:42:04.651Z,1.67
2018-12-30T10:44:35.416Z,1.70
2018-12-30T10:47:06.191Z,2.10
2018-12-30T10:49:36.958Z,2.10
2018-12-30T10:52:07.739Z,1.67
2018-12-30T10:54:38.509Z,1.60
2018-12-30T10:57:09.278Z,2.47
2018-12-30T10:59:40.081Z,2.10
2018-12-30T11:02:10.857Z,1.90
2018-12-30T11:04:41.635Z,2.10
2018-12-30T11:07:12.413Z,2.33
2018-12-30T11:09:43.177Z,1.80
2018-12-30T11:12:13.953Z,1.57
2018-12-30T11:14:45.208Z,1.90
2018-12-30T11:17:15.957Z,2.30
2018-12-30T11:19:46.724Z,2.20
2018-12-30T11:22:17.499Z,2.27
2018-12-30T11:24:48.270Z,1.70
2018-12-30T11:27:19.059Z,2.60
2018-12-30T11:29:49.825Z,2.00
2018-12-30T11:32:20.630Z,1.63
2018-12-30T11:34:51.401Z,1.43
2018-12-30T11:37:22.161Z,2.00
2018-12-30T11:39:54.420Z,1.63
2018-12-30T11:42:25.160Z,1.60
2018-12-30T11:44:55.923Z,1.73
2018-12-30T11:47:26.703Z,1.73
2018-12-30T11:49:59.379Z,1.50
2018-12-30T11:52:30.148Z,1.90
2018-12-30T11:55:02.043Z,1.70
2018-12-30T11:57:33.429Z,2.72
2018-12-30T12:00:07.970Z,2.30
2018-12-30T12:02:38.979Z,1.50
2018-12-30T12:05:09.699Z,1.67
2018-12-30T12:07:40.652Z,1.70
2018-12-30T12:10:11.612Z,1.53
2018-12-30T12:12:48.784Z,1.73
2018-12-30T12:15:15.108Z,2.95
2018-12-30T12:17:45.891Z,2.00
2018-12-30T12:20:16.690Z,2.00
2018-12-30T12:22:47.484Z,2.40
2018-12-30T12:25:18.256Z,2.33
2018-12-30T12:27:57.485Z,2.40
2018-12-30T12:30:38.079Z,2.12
2018-12-30T12:33:14.502Z,1.90
2018-12-30T12:35:45.266Z,2.20
2018-12-30T12:38:16.032Z,2.37
2018-12-30T12:40:46.828Z,2.13
2018-12-30T12:43:17.893Z,2.30
2018-12-30T12:45:48.651Z,2.50
2018-12-30T12:48:19.448Z,3.03
2018-12-30T12:50:50.211Z,2.70
2018-12-30T12:53:20.993Z,1.77
2018-12-30T12:55:51.869Z,2.80
2018-12-30T12:58:22.757Z,2.70
2018-12-30T13:00:53.514Z,2.50
2018-12-30T13:03:24.281Z,2.10
2018-12-30T13:05:55.058Z,2.40
2018-12-30T13:08:25.828Z,2.50
2018-12-30T13:10:56.600Z,2.00
2018-12-30T13:13:27.388Z,2.30
2018-12-30T13:16:03.311Z,2.60
2018-12-30T13:18:31.849Z,2.75
2018-12-30T13:21:02.601Z,2.80
2018-12-30T13:23:33.382Z,3.07
2018-12-30T13:26:04.171Z,2.30
2018-12-30T13:28:34.968Z,3.60
2018-12-30T13:31:05.718Z,4.27
2018-12-30T13:33:36.487Z,3.70
2018-12-30T13:36:08.151Z,4.00
2018-12-30T13:38:38.932Z,3.60
2018-12-30T13:41:10.498Z,4.12
2018-12-30T13:43:41.852Z,4.23
2018-12-30T13:46:12.582Z,4.78
2018-12-30T13:48:43.349Z,3.50
2018-12-30T13:51:14.252Z,3.43
2018-12-30T13:53:45.085Z,3.87
2018-12-30T13:56:15.841Z,3.93
2018-12-30T13:58:46.677Z,4.17
2018-12-30T14:01:17.487Z,3.50
2018-12-30T14:03:48.300Z,2.97
2018-12-30T14:06:19.072Z,3.30
2018-12-30T14:08:49.840Z,3.13
2018-12-30T14:11:20.622Z,4.77
2018-12-30T14:13:51.456Z,3.77
2018-12-30T14:16:22.228Z,3.13
2018-12-30T14:18:53.237Z,2.83
2018-12-30T14:21:24.019Z,3.85
2018-12-30T14:23:54.799Z,3.03
2018-12-30T14:26:25.638Z,3.40
2018-12-30T14:28:56.431Z,2.90
2018-12-30T14:31:27.255Z,3.87
2018-12-30T14:33:58.031Z,3.70
2018-12-30T14:36:28.799Z,2.90
2018-12-30T14:38:59.724Z,3.30
2018-12-30T14:41:30.506Z,3.63
2018-12-30T14:44:01.285Z,3.30
2018-12-30T14:46:34.790Z,3.10
2018-12-30T14:49:04.804Z,3.47
2018-12-30T14:51:35.571Z,4.23
2018-12-30T14:54:06.332Z,4.30
2018-12-30T14:56:37.105Z,3.87
2018-12-30T14:59:07.879Z,3.97
2018-12-30T15:01:38.659Z,3.97
2018-12-30T15:04:09.430Z,4.33
2018-12-30T15:06:40.259Z,4.40
2018-12-30T15:09:11.030Z,4.13
2018-12-30T15:11:41.826Z,4.47
2018-12-30T15:14:12.612Z,4.40
2018-12-30T15:16:43.386Z,5.00
2018-12-30T15:19:14.148Z,4.73
2018-12-30T15:21:44.929Z,4.20
2018-12-30T15:24:15.706Z,5.10
2018-12-30T15:26:46.510Z,4.40
2018-12-30T15:29:17.265Z,4.50
2018-12-30T15:31:48.093Z,4.30
2018-12-30T15:34:18.852Z,4.60
2018-12-30T15:36:49.759Z,4.40
2018-12-30T15:39:20.515Z,4.73
2018-12-30T15:41:51.289Z,5.90
2018-12-30T15:44:22.077Z,5.03
2018-12-30T15:46:52.882Z,4.77
2018-12-30T15:49:23.659Z,5.57
2018-12-30T15:51:54.441Z,4.97
2018-12-30T15:54:25.195Z,4.37
2018-12-30T15:56:56.009Z,4.87
2018-12-30T15:59:26.790Z,5.80
2018-12-30T16:01:57.559Z,5.53
2018-12-30T16:04:28.313Z,5.27
2018-12-30T16:06:59.085Z,5.07
2018-12-30T16:09:29.842Z,4.80
2018-12-30T16:12:00.639Z,5.30
2018-12-30T16:14:31.426Z,5.30
2018-12-30T16:17:02.209Z,5.97
2018-12-30T16:19:32.965Z,5.40
2018-12-30T16:22:03.739Z,5.50
2018-12-30T16:24:35.631Z,6.40
2018-12-30T16:27:06.405Z,4.90
2018-12-30T16:29:38.278Z,5.77
2018-12-30T16:32:09.091Z,6.40
2018-12-30T16:34:39.865Z,6.03
2018-12-30T16:37:10.673Z,5.63
2018-12-30T16:39:41.438Z,6.20
2018-12-30T16:42:12.215Z,5.87
2018-12-30T16:44:43.986Z,5.73
2018-12-30T16:47:14.779Z,5.30
2018-12-30T16:49:45.571Z,5.93
2018-12-30T16:52:16.368Z,5.40
2018-12-30T16:54:47.368Z,6.17
2018-12-30T16:57:18.202Z,5.15
2018-12-30T16:59:48.987Z,6.00
2018-12-30T17:02:19.767Z,4.90
2018-12-30T17:04:50.523Z,5.00
2018-12-30T17:07:21.296Z,5.50
2018-12-30T17:09:52.066Z,5.73
2018-12-30T17:12:24.823Z,5.20
2018-12-30T17:14:55.595Z,6.25
2018-12-30T17:17:27.356Z,6.87
2018-12-30T17:19:58.135Z,9.73
2018-12-30T17:22:28.945Z,6.70
2018-12-30T17:24:59.756Z,6.23
2018-12-30T17:27:30.518Z,6.77
2018-12-30T17:30:02.281Z,6.60
2018-12-30T17:32:33.058Z,6.40
2018-12-30T17:35:03.834Z,6.13
2018-12-30T17:37:34.610Z,7.67
2018-12-30T17:40:05.892Z,6.80
2018-12-30T17:42:36.658Z,8.10
2018-12-30T17:45:07.436Z,6.73
2018-12-30T17:47:38.188Z,6.57
2018-12-30T17:50:08.955Z,6.47
2018-12-30T17:52:39.729Z,7.70
2018-12-30T17:55:10.507Z,7.20
2018-12-30T17:57:41.274Z,6.10
2018-12-30T18:00:12.150Z,7.20
2018-12-30T18:02:42.912Z,7.80
2018-12-30T18:05:13.708Z,6.50
2018-12-30T18:07:44.471Z,7.03
2018-12-30T18:10:15.291Z,7.87
2018-12-30T18:12:46.167Z,7.73
2018-12-30T18:15:16.983Z,8.20
2018-12-30T18:17:47.754Z,8.87
2018-12-30T18:20:18.551Z,7.33
2018-12-30T18:22:49.334Z,9.37
2018-12-30T18:25:20.125Z,9.03
2018-12-30T18:27:50.946Z,8.13
2018-12-30T18:30:22.040Z,8.43
2018-12-30T18:32:52.801Z,8.88
2018-12-30T18:35:23.590Z,8.83
2018-12-30T18:37:54.369Z,9.40
2018-12-30T18:40:25.175Z,8.60
2018-12-30T18:42:55.934Z,9.87
2018-12-30T18:45:27.014Z,9.37
2018-12-30T18:47:57.788Z,9.75
2018-12-30T18:50:28.566Z,8.70
2018-12-30T18:52:59.342Z,10.00
2018-12-30T18:55:30.166Z,9.80
2018-12-30T18:58:00.945Z,10.80
2018-12-30T19:00:31.697Z,10.37
2018-12-30T19:03:02.475Z,9.70
2018-12-30T19:05:33.246Z,10.50
2018-12-30T19:08:04.010Z,10.53
2018-12-30T19:10:34.771Z,10.97
2018-12-30T19:13:06.838Z,11.20
2018-12-30T19:15:37.599Z,11.70
2018-12-30T19:18:08.373Z,11.20
2018-12-30T19:20:39.137Z,10.50
2018-12-30T19:23:09.934Z,10.63
2018-12-30T19:25:40.695Z,11.67
2018-12-30T19:28:11.474Z,10.80
2018-12-30T19:30:42.226Z,9.87
2018-12-30T19:33:13.021Z,10.23
2018-12-30T19:35:43.829Z,10.77
2018-12-30T19:38:14.622Z,10.90
2018-12-30T19:40:46.133Z,10.10
2018-12-30T19:43:17.381Z,9.05
2018-12-30T19:45:48.134Z,12.65
2018-12-30T19:48:18.908Z,10.57
2018-12-30T19:50:49.673Z,11.20
2018-12-30T19:53:20.447Z,10.73
2018-12-30T19:55:53.166Z,11.60
2018-12-30T19:58:23.943Z,9.93
2018-12-30T20:00:54.729Z,10.63
2018-12-30T20:03:25.482Z,9.93
2018-12-30T20:05:56.267Z,10.80
2018-12-30T20:08:27.082Z,9.10
2018-12-30T20:10:57.869Z,10.33
2018-12-30T20:13:28.653Z,9.77
2018-12-30T20:15:59.421Z,9.93
2018-12-30T20:18:30.201Z,9.50
2018-12-30T20:21:00.966Z,10.73
2018-12-30T20:23:31.768Z,10.67
2018-12-30T20:26:02.542Z,10.37
2018-12-30T20:28:33.311Z,11.77
2018-12-30T20:31:04.085Z,10.73
2018-12-30T20:33:34.845Z,10.93
2018-12-30T20:36:05.633Z,11.03
2018-12-30T20:38:36.398Z,10.63
2018-12-30T20:41:07.178Z,10.13
2018-12-30T20:43:37.941Z,10.70
2018-12-30T20:46:08.707Z,10.93
2018-12-30T20:48:39.496Z,10.10
2018-12-30T20:51:10.268Z,10.00
2018-12-30T20:53:41.298Z,10.77
2018-12-30T20:56:12.063Z,10.90
2018-12-30T20:58:42.841Z,10.87
2018-12-30T21:01:13.608Z,11.97
2018-12-30T21:03:44.386Z,11.07
2018-12-30T21:06:15.150Z,11.40
2018-12-30T21:08:45.931Z,10.37
2018-12-30T21:11:16.726Z,11.90
2018-12-30T21:13:47.520Z,11.30
2018-12-30T21:16:18.275Z,12.77
2018-12-30T21:18:49.051Z,11.03
2018-12-30T21:21:19.813Z,12.33
2018-12-30T21:23:50.724Z,11.80
2018-12-30T21:26:24.773Z,11.97
2018-12-30T21:28:55.596Z,12.80
2018-12-30T21:31:26.363Z,11.67
2018-12-30T21:33:57.151Z,11.43
2018-12-30T21:36:29.006Z,11.77
2018-12-30T21:38:59.775Z,11.88
2018-12-30T21:41:30.554Z,12.63
2018-12-30T21:44:01.343Z,12.07
2018-12-30T21:46:32.465Z,12.23
2018-12-30T21:49:03.252Z,11.10
2018-12-30T21:51:34.037Z,12.20
2018-12-30T21:54:04.823Z,13.03
2018-12-30T21:56:35.587Z,13.10
2018-12-30T21:59:06.360Z,12.10
2018-12-30T22:01:37.133Z,12.53
2018-12-30T22:04:07.936Z,13.27
2018-12-30T22:06:38.689Z,12.43
2018-12-30T22:09:09.558Z,12.70
2018-12-30T22:11:40.340Z,12.83
2018-12-30T22:14:11.172Z,13.20
2018-12-30T22:16:41.984Z,13.70
2018-12-30T22:19:12.763Z,12.90
2018-12-30T22:21:43.540Z,13.93
2018-12-30T22:24:14.310Z,13.10
2018-12-30T22:26:45.077Z,12.30
2018-12-30T22:29:15.852Z,12.83
2018-12-30T22:31:46.717Z,13.83
2018-12-30T22:34:17.487Z,13.50
2018-12-30T22:36:48.273Z,14.13
2018-12-30T22:39:19.285Z,13.77
2018-12-30T22:41:50.235Z,15.00
2018-12-30T22:44:23.458Z,12.57
2018-12-30T22:46:54.230Z,14.83
2018-12-30T22:49:25.010Z,14.50
2018-12-30T22:51:55.786Z,13.33
2018-12-30T22:54:27.044Z,13.70
2018-12-30T22:56:57.791Z,15.23
2018-12-30T22:59:28.570Z,15.00
2018-12-30T23:01:59.452Z,14.17
2018-12-30T23:04:30.210Z,14.00
2018-12-30T23:07:00.982Z,14.90
2018-12-30T23:09:31.763Z,14.07
2018-12-30T23:12:02.527Z,13.77
2018-12-30T23:14:33.290Z,13.63
2018-12-30T23:17:04.061Z,12.90
2018-12-30T23:19:34.846Z,15.00
2018-12-30T23:22:05.601Z,12.83
2018-12-30T23:24:36.376Z,17.50
2018-12-30T23:27:07.172Z,15.37
2018-12-30T23:29:38.015Z,12.33
2018-12-30T23:32:08.703Z,14.10
2018-12-30T23:34:39.632Z,14.77
2018-12-30T23:37:10.543Z,10.40
2018-12-30T23:39:41.325Z,11.40
2018-12-30T23:42:12.091Z,13.10
2018-12-30T23:44:42.864Z,11.20
2018-12-30T23:47:13.621Z,11.77
2018-12-30T23:49:44.519Z,11.77
2018-12-30T23:52:15.281Z,11.17
2018-12-30T23:54:46.082Z,11.37
2018-12-30T23:57:16.840Z,10.90
2018-12-30T23:59:47.634Z,10.60
